createdAt,value
2018-09-01T00:00:43.150Z,13.08
2018-09-01T00:03:13.074Z,13.07
2018-09-01T00:05:42.950Z,13.05
2018-09-01T00:08:12.966Z,13.01
2018-09-01T00:10:42.994Z,13.07
2018-09-01T00:13:12.812Z,13.02
2018-09-01T00:15:42.748Z,13.02
2018-09-01T00:18:12.703Z,13.03
2018-09-01T00:20:42.658Z,13.02
2018-09-01T00:23:12.556Z,13.02
2018-09-01T00:25:42.666Z,13.04
2018-09-01T00:28:12.611Z,13.02
2018-09-01T00:30:43.275Z,13.04
2018-09-01T00:33:13.309Z,13.03
2018-09-01T00:35:43.181Z,13.04
2018-09-01T00:38:18.488Z,13.04
2018-09-01T00:40:48.415Z,13.03
2018-09-01T00:43:18.923Z,13.07
2018-09-01T00:45:49.015Z,13.14
2018-09-01T00:48:19.027Z,13.07
2018-09-01T00:50:49.882Z,13.07
2018-09-01T00:53:20.080Z,13.07
2018-09-01T00:55:49.862Z,13.06
2018-09-01T00:58:20.355Z,13.04
2018-09-01T01:00:50.217Z,13.03
2018-09-01T01:03:20.418Z,13.05
2018-09-01T01:05:50.321Z,13.02
2018-09-01T01:08:20.176Z,13.01
2018-09-01T01:10:50.039Z,13.01
2018-09-01T01:13:19.980Z,13.03
2018-09-01T01:15:50.283Z,13.04
2018-09-01T01:18:20.122Z,13.03
2018-09-01T01:20:50.369Z,12.99
2018-09-01T01:23:20.444Z,12.99
2018-09-01T01:25:50.293Z,13.00
2018-09-01T01:28:20.285Z,13.00
2018-09-01T01:30:50.354Z,13.01
2018-09-01T01:33:20.123Z,12.99
2018-09-01T01:35:49.930Z,12.98
2018-09-01T01:38:19.879Z,12.93
2018-09-01T01:40:49.851Z,12.96
2018-09-01T01:43:19.736Z,12.92
2018-09-01T01:45:49.959Z,12.96
2018-09-01T01:48:19.931Z,12.92
2018-09-01T01:50:49.771Z,12.92
2018-09-01T01:53:19.670Z,12.87
2018-09-01T01:58:27.523Z,12.93
2018-09-01T02:00:57.235Z,12.89
2018-09-01T02:03:27.073Z,12.93
2018-09-01T02:05:56.861Z,12.89
2018-09-01T02:08:26.699Z,12.88
2018-09-01T02:10:56.601Z,12.90
2018-09-01T02:13:26.443Z,12.91
2018-09-01T02:15:56.250Z,12.95
2018-09-01T02:18:26.431Z,12.90
2018-09-01T02:20:56.963Z,12.92
2018-09-01T02:23:26.863Z,12.89
2018-09-01T02:25:56.741Z,12.90
2018-09-01T02:28:26.925Z,12.88
2018-09-01T02:30:57.551Z,12.89
2018-09-01T02:33:27.641Z,12.89
2018-09-01T02:35:57.590Z,12.91
2018-09-01T02:38:27.716Z,12.93
2018-09-01T02:40:57.563Z,12.88
2018-09-01T02:43:27.364Z,12.94
2018-09-01T02:45:57.585Z,12.92
2018-09-01T02:48:28.291Z,12.89
2018-09-01T02:50:58.085Z,12.92
2018-09-01T02:53:27.995Z,12.90
2018-09-01T02:55:57.801Z,12.90
2018-09-01T02:58:27.649Z,12.87
2018-09-01T03:01:02.665Z,12.89
2018-09-01T03:03:32.649Z,12.87
2018-09-01T03:06:02.577Z,12.86
2018-09-01T03:08:32.437Z,12.86
2018-09-01T03:11:02.516Z,12.83
2018-09-01T03:13:32.559Z,12.82
2018-09-01T03:16:02.427Z,12.79
2018-09-01T03:18:33.020Z,12.77
2018-09-01T03:21:02.973Z,12.76
2018-09-01T03:23:32.876Z,12.78
2018-09-01T03:26:02.737Z,12.78
2018-09-01T03:28:32.636Z,12.76
2018-09-01T03:31:02.874Z,12.75
2018-09-01T03:33:33.962Z,12.74
2018-09-01T03:36:03.808Z,12.71
2018-09-01T03:38:34.031Z,12.70
2018-09-01T03:41:03.909Z,12.70
2018-09-01T03:43:33.743Z,12.71
2018-09-01T03:46:03.576Z,12.70
2018-09-01T03:48:33.398Z,12.67
2018-09-01T03:51:03.238Z,12.68
2018-09-01T03:53:32.978Z,12.68
2018-09-01T03:56:02.824Z,12.70
2018-09-01T03:58:32.690Z,12.72
2018-09-01T04:01:02.460Z,12.70
2018-09-01T04:03:32.324Z,12.73
2018-09-01T04:06:02.278Z,12.70
2018-09-01T04:08:32.103Z,12.70
2018-09-01T04:11:01.938Z,12.69
2018-09-01T04:13:31.759Z,12.70
2018-09-01T04:16:01.924Z,12.71
2018-09-01T04:18:31.812Z,12.71
2018-09-01T04:21:01.865Z,12.69
2018-09-01T04:23:31.638Z,12.73
2018-09-01T04:26:01.414Z,12.71
2018-09-01T04:28:31.270Z,12.68
2018-09-01T04:31:01.244Z,12.70
2018-09-01T04:33:31.050Z,12.68
2018-09-01T04:36:00.803Z,12.68
2018-09-01T04:38:30.546Z,12.70
2018-09-01T04:41:00.721Z,12.67
2018-09-01T04:43:30.578Z,12.68
2018-09-01T04:46:00.368Z,12.69
2018-09-01T04:48:30.188Z,12.67
2018-09-01T04:51:00.015Z,12.71
2018-09-01T04:53:29.756Z,12.65
2018-09-01T04:55:59.574Z,12.63
2018-09-01T04:58:29.736Z,12.65
2018-09-01T05:00:59.675Z,12.64
2018-09-01T05:03:29.871Z,12.63
2018-09-01T05:05:59.699Z,12.62
2018-09-01T05:08:29.487Z,12.62
2018-09-01T05:10:59.341Z,12.66
2018-09-01T05:13:29.173Z,12.63
2018-09-01T05:15:58.977Z,12.68
2018-09-01T05:18:28.731Z,12.70
2018-09-01T05:20:58.575Z,12.74
2018-09-01T05:23:28.534Z,12.71
2018-09-01T05:25:58.313Z,12.71
2018-09-01T05:28:28.249Z,12.72
2018-09-01T05:30:58.031Z,12.76
2018-09-01T05:33:27.907Z,12.75
2018-09-01T05:35:57.701Z,12.84
2018-09-01T05:38:27.523Z,12.77
2018-09-01T05:40:57.310Z,12.81
2018-09-01T05:43:27.532Z,12.79
2018-09-01T05:45:57.385Z,12.82
2018-09-01T05:48:27.219Z,12.81
2018-09-01T05:50:57.021Z,12.89
2018-09-01T05:53:26.800Z,12.86
2018-09-01T05:55:56.566Z,12.81
2018-09-01T05:58:26.393Z,12.87
2018-09-01T06:00:56.517Z,12.86
2018-09-01T06:03:26.313Z,12.89
2018-09-01T06:05:56.061Z,12.91
2018-09-01T06:08:26.058Z,12.93
2018-09-01T06:10:55.908Z,12.95
2018-09-01T06:13:26.092Z,12.94
2018-09-01T06:15:55.847Z,13.01
2018-09-01T06:18:25.695Z,12.99
2018-09-01T06:20:55.857Z,13.00
2018-09-01T06:23:25.959Z,13.02
2018-09-01T06:25:56.090Z,13.03
2018-09-01T06:28:32.181Z,13.00
2018-09-01T06:31:02.036Z,13.02
2018-09-01T06:33:32.161Z,13.01
2018-09-01T06:36:02.109Z,13.01
2018-09-01T06:38:31.927Z,13.01
2018-09-01T06:41:01.755Z,13.03
2018-09-01T06:43:31.949Z,13.04
2018-09-01T06:46:01.839Z,13.08
2018-09-01T06:48:31.738Z,13.11
2018-09-01T06:51:01.572Z,13.12
2018-09-01T06:53:31.406Z,13.15
2018-09-01T06:56:01.253Z,13.22
2018-09-01T06:58:31.082Z,13.25
2018-09-01T07:01:01.070Z,13.26
2018-09-01T07:03:30.888Z,13.24
2018-09-01T07:06:01.015Z,13.24
2018-09-01T07:08:31.165Z,13.25
2018-09-01T07:11:01.312Z,13.31
2018-09-01T07:17:07.807Z,13.34
2018-09-01T07:19:37.685Z,13.34
2018-09-01T07:22:07.872Z,13.41
2018-09-01T07:24:37.791Z,13.51
2018-09-01T07:27:07.905Z,13.55
2018-09-01T07:29:37.871Z,13.65
2018-09-01T07:32:07.743Z,13.69
2018-09-01T07:34:37.596Z,13.65
2018-09-01T07:37:07.861Z,13.65
2018-09-01T07:39:38.636Z,13.71
2018-09-01T07:42:08.514Z,13.74
2018-09-01T07:44:38.400Z,13.73
2018-09-01T07:47:08.324Z,13.70
2018-09-01T07:49:38.184Z,13.71
2018-09-01T07:52:08.442Z,13.76
2018-09-01T07:54:38.329Z,13.84
2018-09-01T07:57:08.352Z,13.92
2018-09-01T07:59:38.186Z,13.96
2018-09-01T08:02:08.158Z,13.95
2018-09-01T08:04:37.970Z,13.90
2018-09-01T08:07:08.335Z,13.91
2018-09-01T08:09:38.144Z,13.86
2018-09-01T08:12:08.992Z,13.90
2018-09-01T08:14:38.798Z,13.89
2018-09-01T08:17:08.874Z,13.93
2018-09-01T08:19:38.702Z,13.96
2018-09-01T08:22:08.744Z,13.96
2018-09-01T08:24:39.200Z,13.93
2018-09-01T08:27:09.064Z,13.88
2018-09-01T08:29:39.183Z,13.95
2018-09-01T08:32:09.400Z,13.96
2018-09-01T08:34:39.243Z,13.97
2018-09-01T08:37:09.196Z,13.99
2018-09-01T08:39:38.993Z,13.95
2018-09-01T08:42:08.924Z,13.95
2018-09-01T08:44:38.985Z,13.97
2018-09-01T08:47:08.832Z,13.92
2018-09-01T08:49:38.634Z,14.02
2018-09-01T08:52:08.481Z,14.07
2018-09-01T08:54:38.268Z,14.15
2018-09-01T08:57:08.471Z,14.28
2018-09-01T08:59:38.288Z,14.32
2018-09-01T09:02:08.114Z,14.24
2018-09-01T09:04:37.944Z,14.28
2018-09-01T09:07:08.484Z,14.27
2018-09-01T09:09:38.360Z,14.28
2018-09-01T09:12:08.243Z,14.23
2018-09-01T09:14:38.119Z,14.22
2018-09-01T09:17:08.006Z,14.27
2018-09-01T09:19:37.834Z,14.18
2018-09-01T09:22:07.756Z,14.17
2018-09-01T09:24:37.673Z,14.14
2018-09-01T09:27:07.980Z,14.02
2018-09-01T09:29:37.802Z,13.94
2018-09-01T09:32:07.986Z,13.98
2018-09-01T09:34:37.894Z,13.99
2018-09-01T09:37:07.812Z,14.00
2018-09-01T09:39:37.648Z,13.90
2018-09-01T09:42:07.487Z,13.88
2018-09-01T09:44:37.376Z,13.84
2018-09-01T09:47:07.504Z,13.84
2018-09-01T09:49:37.304Z,13.83
2018-09-01T09:52:07.120Z,13.91
2018-09-01T09:54:36.989Z,13.88
2018-09-01T09:57:07.424Z,13.75
2018-09-01T09:59:37.370Z,13.70
2018-09-01T10:02:07.168Z,13.71
2018-09-01T10:04:37.309Z,13.69
2018-09-01T10:07:07.142Z,13.55
2018-09-01T10:09:37.223Z,13.47
2018-09-01T10:12:07.045Z,13.40
2018-09-01T10:14:36.915Z,13.31
2018-09-01T10:17:06.759Z,13.32
2018-09-01T10:19:36.787Z,13.37
2018-09-01T10:22:06.665Z,13.40
2018-09-01T10:24:36.469Z,13.41
2018-09-01T10:27:06.445Z,13.39
2018-09-01T10:29:36.399Z,13.40
2018-09-01T10:32:06.761Z,13.42
2018-09-01T10:34:36.549Z,13.42
2018-09-01T10:37:06.416Z,13.55
2018-09-01T10:39:36.238Z,13.57
2018-09-01T10:42:06.498Z,13.66
2018-09-01T10:44:36.327Z,13.73
2018-09-01T10:47:06.207Z,13.78
2018-09-01T10:49:36.031Z,13.72
2018-09-01T10:52:05.943Z,13.79
2018-09-01T10:54:35.747Z,13.85
2018-09-01T10:57:05.891Z,13.95
2018-09-01T10:59:35.811Z,13.94
2018-09-01T11:02:06.163Z,13.98
2018-09-01T11:04:36.327Z,14.19
2018-09-01T11:07:06.491Z,14.18
2018-09-01T11:09:36.412Z,14.22
2018-09-01T11:12:06.535Z,14.33
2018-09-01T11:14:36.582Z,14.40
2018-09-01T11:17:07.354Z,14.31
2018-09-01T11:19:37.286Z,14.46
2018-09-01T11:22:07.146Z,14.55
2018-09-01T11:24:37.034Z,14.65
2018-09-01T11:27:06.938Z,14.49
2018-09-01T11:29:37.052Z,14.49
2018-09-01T11:32:07.430Z,14.47
2018-09-01T11:34:37.508Z,14.39
2018-09-01T11:37:07.577Z,14.39
2018-09-01T11:39:37.360Z,14.36
2018-09-01T11:42:07.568Z,14.38
2018-09-01T11:44:37.859Z,14.43
2018-09-01T11:47:07.731Z,14.36
2018-09-01T11:49:37.543Z,14.37
2018-09-01T11:52:07.380Z,14.41
2018-09-01T11:54:37.377Z,14.52
2018-09-01T11:57:07.189Z,14.55
2018-09-01T11:59:37.102Z,14.71
2018-09-01T12:02:07.141Z,14.92
2018-09-01T12:04:37.203Z,14.95
2018-09-01T12:07:07.213Z,15.14
2018-09-01T12:09:37.062Z,15.25
2018-09-01T12:12:06.911Z,15.30
2018-09-01T12:14:36.969Z,15.11
2018-09-01T12:17:06.983Z,15.04
2018-09-01T12:19:36.795Z,14.92
2018-09-01T12:22:06.793Z,14.98
2018-09-01T12:24:36.737Z,15.17
2018-09-01T12:27:06.913Z,15.24
2018-09-01T12:29:36.702Z,15.35
2018-09-01T12:32:07.068Z,15.47
2018-09-01T12:34:36.903Z,15.42
2018-09-01T12:37:06.740Z,15.58
2018-09-01T12:39:36.584Z,15.50
2018-09-01T12:42:06.458Z,15.48
2018-09-01T12:44:36.488Z,15.26
2018-09-01T12:47:06.302Z,15.27
2018-09-01T12:49:36.076Z,15.25
2018-09-01T12:52:06.048Z,14.87
2018-09-01T12:54:36.012Z,14.76
2018-09-01T12:57:05.769Z,14.65
2018-09-01T12:59:35.648Z,14.55
2018-09-01T13:02:05.506Z,14.36
2018-09-01T13:04:35.480Z,14.28
2018-09-01T13:07:05.611Z,14.19
2018-09-01T13:09:35.380Z,14.35
2018-09-01T13:12:05.170Z,14.49
2018-09-01T13:14:34.964Z,14.51
2018-09-01T13:17:04.812Z,14.61
2018-09-01T13:19:34.620Z,14.95
2018-09-01T13:22:04.699Z,15.08
2018-09-01T13:24:34.477Z,15.22
2018-09-01T13:27:04.342Z,15.15
2018-09-01T13:29:34.169Z,15.13
2018-09-01T13:32:04.067Z,15.20
2018-09-01T13:34:33.916Z,15.27
2018-09-01T13:37:03.945Z,15.38
2018-09-01T13:39:33.783Z,15.44
2018-09-01T13:42:03.997Z,15.47
2018-09-01T13:44:34.157Z,15.54
2018-09-01T13:47:04.437Z,15.67
2018-09-01T13:49:34.367Z,15.85
2018-09-01T13:52:05.086Z,15.74
2018-09-01T13:54:35.837Z,15.57
2018-09-01T13:57:05.898Z,15.81
2018-09-01T13:59:35.798Z,15.89
2018-09-01T14:02:05.776Z,15.92
2018-09-01T14:04:35.573Z,15.91
2018-09-01T14:07:05.588Z,15.82
2018-09-01T14:09:35.646Z,15.74
2018-09-01T14:12:05.633Z,15.77
2018-09-01T14:14:35.811Z,15.89
2018-09-01T14:17:06.340Z,15.90
2018-09-01T14:19:36.200Z,15.98
2018-09-01T14:22:06.464Z,16.03
2018-09-01T14:24:36.286Z,16.02
2018-09-01T14:27:06.188Z,15.86
2018-09-01T14:29:36.018Z,15.85
2018-09-01T14:32:05.930Z,15.75
2018-09-01T14:34:35.794Z,15.68
2018-09-01T14:37:06.740Z,15.68
2018-09-01T14:39:36.790Z,15.58
2018-09-01T14:42:06.909Z,15.55
2018-09-01T14:44:36.728Z,15.52
2018-09-01T14:47:07.068Z,15.34
2018-09-01T14:49:37.271Z,15.41
2018-09-01T14:52:07.287Z,15.39
2018-09-01T14:54:37.070Z,15.48
2018-09-01T14:57:06.972Z,15.59
2018-09-01T14:59:36.841Z,15.33
2018-09-01T15:02:07.125Z,15.50
2018-09-01T15:04:36.876Z,15.56
2018-09-01T15:07:07.089Z,15.53
2018-09-01T15:09:36.871Z,15.53
2018-09-01T15:12:06.915Z,15.62
2018-09-01T15:14:37.006Z,15.63
2018-09-01T15:17:06.891Z,15.51
2018-09-01T15:19:36.708Z,15.52
2018-09-01T15:22:06.544Z,15.27
2018-09-01T15:24:36.320Z,14.98
2018-09-01T15:27:06.174Z,15.04
2018-09-01T15:29:36.050Z,15.15
2018-09-01T15:32:05.974Z,15.23
2018-09-01T15:34:35.826Z,15.31
2018-09-01T15:37:05.696Z,15.46
2018-09-01T15:39:35.595Z,15.51
2018-09-01T15:42:05.439Z,15.45
2018-09-01T15:44:35.315Z,15.47
2018-09-01T15:47:05.271Z,15.43
2018-09-01T15:49:35.089Z,15.38
2018-09-01T15:52:04.852Z,15.39
2018-09-01T15:54:34.705Z,15.43
2018-09-01T15:57:04.963Z,15.44
2018-09-01T15:59:34.781Z,15.43
2018-09-01T16:02:04.611Z,15.45
2018-09-01T16:04:34.789Z,15.45
2018-09-01T16:07:04.681Z,15.46
2018-09-01T16:09:34.499Z,15.33
2018-09-01T16:12:04.926Z,15.44
2018-09-01T16:14:34.923Z,15.39
2018-09-01T16:17:04.859Z,15.52
2018-09-01T16:19:34.663Z,15.39
2018-09-01T16:22:04.898Z,15.34
2018-09-01T16:24:34.730Z,15.32
2018-09-01T16:27:04.720Z,15.31
2018-09-01T16:29:34.856Z,15.08
2018-09-01T16:32:04.722Z,15.07
2018-09-01T16:34:34.727Z,15.10
2018-09-01T16:37:04.978Z,15.12
2018-09-01T16:39:34.782Z,15.06
2018-09-01T16:42:04.567Z,15.08
2018-09-01T16:44:34.685Z,15.02
2018-09-01T16:47:04.979Z,15.01
2018-09-01T16:49:35.717Z,15.04
2018-09-01T16:52:05.548Z,15.02
2018-09-01T16:54:35.499Z,15.02
2018-09-01T16:57:05.589Z,15.14
2018-09-01T16:59:35.419Z,15.01
2018-09-01T17:02:05.199Z,14.98
2018-09-01T17:04:34.995Z,15.01
2018-09-01T17:07:04.815Z,15.01
2018-09-01T17:09:35.217Z,15.04
2018-09-01T17:12:05.479Z,14.78
2018-09-01T17:14:35.246Z,14.62
2018-09-01T17:17:05.147Z,14.73
2018-09-01T17:19:34.945Z,14.63
2018-09-01T17:22:04.864Z,14.44
2018-09-01T17:24:34.631Z,14.26
2018-09-01T17:27:04.815Z,14.35
2018-09-01T17:29:34.669Z,14.27
2018-09-01T17:32:04.512Z,14.36
2018-09-01T17:34:34.293Z,14.60
2018-09-01T17:37:04.075Z,14.53
2018-09-01T17:39:33.957Z,14.56
2018-09-01T17:42:03.744Z,14.15
2018-09-01T17:44:33.558Z,14.26
2018-09-01T17:47:03.417Z,14.29
2018-09-01T17:49:33.313Z,14.32
2018-09-01T17:52:03.192Z,14.26
2018-09-01T17:54:33.032Z,14.27
2018-09-01T17:57:02.913Z,14.31
2018-09-01T17:59:32.707Z,14.39
2018-09-01T18:02:02.606Z,14.28
2018-09-01T18:04:32.637Z,14.25
2018-09-01T18:07:02.451Z,14.31
2018-09-01T18:09:32.317Z,14.30
2018-09-01T18:12:02.103Z,14.33
2018-09-01T18:14:31.899Z,14.17
2018-09-01T18:17:01.699Z,14.05
2018-09-01T18:19:32.064Z,14.05
2018-09-01T18:22:02.098Z,14.15
2018-09-01T18:24:31.931Z,14.08
2018-09-01T18:27:01.729Z,13.86
2018-09-01T18:29:31.744Z,13.91
2018-09-01T18:32:02.028Z,13.91
2018-09-01T18:34:31.939Z,13.80
2018-09-01T18:37:01.929Z,13.81
2018-09-01T18:39:31.813Z,13.82
2018-09-01T18:42:01.671Z,13.80
2018-09-01T18:44:32.192Z,13.81
2018-09-01T18:47:02.210Z,13.72
2018-09-01T18:49:32.087Z,13.56
2018-09-01T18:52:01.847Z,13.58
2018-09-01T18:54:31.624Z,13.52
2018-09-01T18:57:02.020Z,13.55
2018-09-01T18:59:31.890Z,13.59
2018-09-01T19:02:01.879Z,13.52
2018-09-01T19:04:31.952Z,13.53
2018-09-01T19:07:01.813Z,13.56
2018-09-01T19:09:31.604Z,13.56
2018-09-01T19:12:01.483Z,13.54
2018-09-01T19:14:32.028Z,13.56
2018-09-01T19:17:02.387Z,13.64
2018-09-01T19:19:32.824Z,13.63
2018-09-01T19:22:02.644Z,13.67
2018-09-01T19:24:32.523Z,13.70
2018-09-01T19:27:02.470Z,13.79
2018-09-01T19:29:32.542Z,13.74
2018-09-01T19:32:02.750Z,13.79
2018-09-01T19:34:32.646Z,13.64
2018-09-01T19:37:02.635Z,13.51
2018-09-01T19:39:32.474Z,13.42
2018-09-01T19:42:02.338Z,13.35
2018-09-01T19:44:32.232Z,13.57
2018-09-01T19:47:02.287Z,13.63
2018-09-01T19:49:32.382Z,13.54
2018-09-01T19:52:02.230Z,13.53
2018-09-01T19:54:32.148Z,13.40
2018-09-01T19:57:02.090Z,13.17
2018-09-01T19:59:32.112Z,13.03
2018-09-01T20:02:02.223Z,12.94
2018-09-01T20:04:32.371Z,12.91
2018-09-01T20:07:02.307Z,12.85
2018-09-01T20:09:32.168Z,12.85
2018-09-01T20:12:02.054Z,12.79
2018-09-01T20:14:32.104Z,12.71
2018-09-01T20:17:02.058Z,12.79
2018-09-01T20:19:31.960Z,12.79
2018-09-01T20:22:01.813Z,12.72
2018-09-01T20:24:31.670Z,12.68
2018-09-01T20:27:01.834Z,12.67
2018-09-01T20:29:32.238Z,12.61
2018-09-01T20:32:02.363Z,12.69
2018-09-01T20:34:32.604Z,12.70
2018-09-01T20:37:02.431Z,12.67
2018-09-01T20:39:32.217Z,12.67
2018-09-01T20:42:02.069Z,12.71
2018-09-01T20:44:31.880Z,12.83
2018-09-01T20:47:01.944Z,12.98
2018-09-01T20:49:31.731Z,13.16
2018-09-01T20:52:02.004Z,13.19
2018-09-01T20:54:32.029Z,13.17
2018-09-01T20:57:02.003Z,13.28
2018-09-01T20:59:31.837Z,13.23
2018-09-01T21:02:01.833Z,13.26
2018-09-01T21:04:31.895Z,13.15
2018-09-01T21:07:01.913Z,13.42
2018-09-01T21:09:31.779Z,13.28
2018-09-01T21:12:01.690Z,13.35
2018-09-01T21:14:31.499Z,13.40
2018-09-01T21:17:01.973Z,13.45
2018-09-01T21:19:31.955Z,13.30
2018-09-01T21:22:01.751Z,13.05
2018-09-01T21:24:32.028Z,12.91
2018-09-01T21:27:01.953Z,12.85
2018-09-01T21:29:31.819Z,12.98
2018-09-01T21:32:01.606Z,13.12
2018-09-01T21:34:31.365Z,13.00
2018-09-01T21:37:01.279Z,12.92
2018-09-01T21:39:31.137Z,13.02
2018-09-01T21:42:01.277Z,12.96
2018-09-01T21:44:31.435Z,12.86
2018-09-01T21:47:01.712Z,12.71
2018-09-01T21:49:31.520Z,12.72
2018-09-01T21:52:01.897Z,12.58
2018-09-01T21:54:31.785Z,12.62
2018-09-01T21:57:01.640Z,12.59
2018-09-01T21:59:31.735Z,12.48
2018-09-01T22:02:06.729Z,12.46
2018-09-01T22:04:41.680Z,12.45
2018-09-01T22:07:11.637Z,12.45
2018-09-01T22:09:41.426Z,12.47
2018-09-01T22:12:11.754Z,12.45
2018-09-01T22:14:41.556Z,12.44
2018-09-01T22:17:11.391Z,12.39
2018-09-01T22:19:41.812Z,12.46
2018-09-01T22:22:11.984Z,12.42
2018-09-01T22:24:41.827Z,12.43
2018-09-01T22:27:11.752Z,12.38
2018-09-01T22:29:41.533Z,12.38
2018-09-01T22:32:11.337Z,12.40
2018-09-01T22:34:41.175Z,12.43
2018-09-01T22:37:11.267Z,12.39
2018-09-01T22:39:41.037Z,12.36
2018-09-01T22:42:10.919Z,12.37
2018-09-01T22:44:41.075Z,12.47
2018-09-01T22:47:16.328Z,12.46
2018-09-01T22:49:46.419Z,12.43
2018-09-01T22:52:16.229Z,12.38
2018-09-01T22:54:46.129Z,12.45
2018-09-01T22:57:15.918Z,12.45
2018-09-01T22:59:45.707Z,12.46
2018-09-01T23:02:15.580Z,12.54
2018-09-01T23:04:45.493Z,12.55
2018-09-01T23:07:15.337Z,12.46
2018-09-01T23:09:45.127Z,12.47
2018-09-01T23:12:14.880Z,12.46
2018-09-01T23:14:44.667Z,12.39
2018-09-01T23:17:14.473Z,12.36
2018-09-01T23:19:44.352Z,12.37
2018-09-01T23:22:14.385Z,12.33
2018-09-01T23:24:44.185Z,12.33
2018-09-01T23:27:14.438Z,12.31
2018-09-01T23:29:44.609Z,12.26
2018-09-01T23:32:14.773Z,12.26
2018-09-01T23:34:44.672Z,12.25
2018-09-01T23:37:14.539Z,12.28
2018-09-01T23:39:44.731Z,12.19
2018-09-01T23:42:14.556Z,12.22
2018-09-01T23:44:44.454Z,12.30
2018-09-01T23:47:14.279Z,12.23
2018-09-01T23:49:44.347Z,12.24
2018-09-01T23:52:14.523Z,12.26
2018-09-01T23:54:44.750Z,12.30
2018-09-01T23:57:14.873Z,12.33
2018-09-01T23:59:44.806Z,12.34
